sensor_id;sensor_type;location;lat;lon;timestamp;P1;durP1;ratioP1;P2;durP2;ratioP2
76332;SDS011;71254;53.010;6.508;2023-08-08T00:00:17;4.30;;;3.75;;
76332;SDS011;71254;53.010;6.508;2023-08-08T00:02:43;3.88;;;3.30;;
76332;SDS011;71254;53.010;6.508;2023-08-08T00:05:09;5.47;;;3.67;;
76332;SDS011;71254;53.010;6.508;2023-08-08T00:07:34;4.93;;;3.17;;
76332;SDS011;71254;53.010;6.508;2023-08-08T00:10:00;5.57;;;3.50;;
76332;SDS011;71254;53.010;6.508;2023-08-08T00:12:26;4.30;;;3.60;;
76332;SDS011;71254;53.010;6.508;2023-08-08T00:14:51;5.53;;;3.38;;
76332;SDS011;71254;53.010;6.508;2023-08-08T00:17:17;3.92;;;3.00;;
76332;SDS011;71254;53.010;6.508;2023-08-08T00:19:43;3.75;;;3.30;;
76332;SDS011;71254;53.010;6.508;2023-08-08T00:22:08;4.43;;;3.72;;
76332;SDS011;71254;53.010;6.508;2023-08-08T00:24:34;8.43;;;3.80;;
76332;SDS011;71254;53.010;6.508;2023-08-08T00:26:59;4.85;;;3.45;;
76332;SDS011;71254;53.010;6.508;2023-08-08T00:29:25;4.40;;;3.20;;
76332;SDS011;71254;53.010;6.508;2023-08-08T00:31:51;5.90;;;3.28;;
76332;SDS011;71254;53.010;6.508;2023-08-08T00:34:16;4.95;;;3.28;;
76332;SDS011;71254;53.010;6.508;2023-08-08T00:36:42;6.55;;;3.35;;
76332;SDS011;71254;53.010;6.508;2023-08-08T00:39:07;3.65;;;2.97;;
76332;SDS011;71254;53.010;6.508;2023-08-08T00:41:33;5.38;;;3.13;;
76332;SDS011;71254;53.010;6.508;2023-08-08T00:43:59;5.00;;;3.17;;
76332;SDS011;71254;53.010;6.508;2023-08-08T00:46:24;4.28;;;3.88;;
76332;SDS011;71254;53.010;6.508;2023-08-08T00:48:51;5.00;;;3.30;;
76332;SDS011;71254;53.010;6.508;2023-08-08T00:51:17;5.07;;;3.40;;
76332;SDS011;71254;53.010;6.508;2023-08-08T00:53:44;5.07;;;3.75;;
76332;SDS011;71254;53.010;6.508;2023-08-08T00:56:11;5.10;;;3.85;;
76332;SDS011;71254;53.010;6.508;2023-08-08T00:58:38;5.75;;;3.78;;
76332;SDS011;71254;53.010;6.508;2023-08-08T01:01:05;4.63;;;3.83;;
76332;SDS011;71254;53.010;6.508;2023-08-08T01:03:30;5.15;;;4.20;;
76332;SDS011;71254;53.010;6.508;2023-08-08T01:06:02;5.05;;;3.92;;
76332;SDS011;71254;53.010;6.508;2023-08-08T01:08:35;5.57;;;3.70;;
76332;SDS011;71254;53.010;6.508;2023-08-08T01:11:10;5.15;;;4.22;;
76332;SDS011;71254;53.010;6.508;2023-08-08T01:13:38;5.28;;;4.10;;
76332;SDS011;71254;53.010;6.508;2023-08-08T01:16:05;6.57;;;4.28;;
76332;SDS011;71254;53.010;6.508;2023-08-08T01:18:32;6.30;;;3.55;;
76332;SDS011;71254;53.010;6.508;2023-08-08T01:20:58;4.63;;;3.58;;
76332;SDS011;71254;53.010;6.508;2023-08-08T01:23:33;4.97;;;4.57;;
76332;SDS011;71254;53.010;6.508;2023-08-08T01:26:07;5.40;;;4.55;;
76332;SDS011;71254;53.010;6.508;2023-08-08T01:28:33;8.57;;;4.60;;
76332;SDS011;71254;53.010;6.508;2023-08-08T01:30:59;5.35;;;4.22;;
76332;SDS011;71254;53.010;6.508;2023-08-08T01:33:25;5.70;;;3.92;;
76332;SDS011;71254;53.010;6.508;2023-08-08T01:35:53;7.00;;;4.82;;
76332;SDS011;71254;53.010;6.508;2023-08-08T01:38:23;5.70;;;4.22;;
76332;SDS011;71254;53.010;6.508;2023-08-08T01:40:51;6.63;;;4.68;;
76332;SDS011;71254;53.010;6.508;2023-08-08T01:43:16;5.55;;;4.47;;
76332;SDS011;71254;53.010;6.508;2023-08-08T01:45:43;6.80;;;4.70;;
76332;SDS011;71254;53.010;6.508;2023-08-08T01:48:09;4.85;;;4.28;;
76332;SDS011;71254;53.010;6.508;2023-08-08T01:50:36;6.78;;;4.95;;
76332;SDS011;71254;53.010;6.508;2023-08-08T01:53:02;7.82;;;4.38;;
76332;SDS011;71254;53.010;6.508;2023-08-08T01:55:29;5.72;;;4.07;;
76332;SDS011;71254;53.010;6.508;2023-08-08T01:57:55;6.45;;;4.72;;
76332;SDS011;71254;53.010;6.508;2023-08-08T02:00:21;7.40;;;4.65;;
76332;SDS011;71254;53.010;6.508;2023-08-08T02:02:47;7.38;;;4.40;;
76332;SDS011;71254;53.010;6.508;2023-08-08T02:05:12;5.07;;;4.25;;
76332;SDS011;71254;53.010;6.508;2023-08-08T02:07:38;7.43;;;4.60;;
76332;SDS011;71254;53.010;6.508;2023-08-08T02:10:04;5.07;;;4.47;;
76332;SDS011;71254;53.010;6.508;2023-08-08T02:12:29;5.00;;;4.38;;
76332;SDS011;71254;53.010;6.508;2023-08-08T02:14:56;6.68;;;4.10;;
76332;SDS011;71254;53.010;6.508;2023-08-08T02:17:22;6.63;;;4.65;;
76332;SDS011;71254;53.010;6.508;2023-08-08T02:19:47;6.57;;;4.63;;
76332;SDS011;71254;53.010;6.508;2023-08-08T02:22:13;5.57;;;4.60;;
76332;SDS011;71254;53.010;6.508;2023-08-08T02:24:39;8.38;;;5.03;;
76332;SDS011;71254;53.010;6.508;2023-08-08T02:27:04;5.70;;;4.70;;
76332;SDS011;71254;53.010;6.508;2023-08-08T02:29:30;5.35;;;4.30;;
76332;SDS011;71254;53.010;6.508;2023-08-08T02:31:56;6.70;;;4.50;;
76332;SDS011;71254;53.010;6.508;2023-08-08T02:34:21;5.93;;;4.45;;
76332;SDS011;71254;53.010;6.508;2023-08-08T02:36:47;6.40;;;5.00;;
76332;SDS011;71254;53.010;6.508;2023-08-08T02:39:13;5.07;;;4.20;;
76332;SDS011;71254;53.010;6.508;2023-08-08T02:41:38;5.32;;;4.50;;
76332;SDS011;71254;53.010;6.508;2023-08-08T02:44:04;4.60;;;4.05;;
76332;SDS011;71254;53.010;6.508;2023-08-08T02:46:30;6.88;;;4.65;;
76332;SDS011;71254;53.010;6.508;2023-08-08T02:48:55;4.72;;;4.25;;
76332;SDS011;71254;53.010;6.508;2023-08-08T02:51:21;7.90;;;4.90;;
76332;SDS011;71254;53.010;6.508;2023-08-08T02:53:46;6.38;;;4.75;;
76332;SDS011;71254;53.010;6.508;2023-08-08T02:56:12;5.80;;;4.85;;
76332;SDS011;71254;53.010;6.508;2023-08-08T02:58:38;7.20;;;4.55;;
76332;SDS011;71254;53.010;6.508;2023-08-08T03:01:03;6.63;;;4.70;;
76332;SDS011;71254;53.010;6.508;2023-08-08T03:03:29;5.55;;;4.60;;
76332;SDS011;71254;53.010;6.508;2023-08-08T03:05:54;5.47;;;4.78;;
76332;SDS011;71254;53.010;6.508;2023-08-08T03:08:20;9.20;;;4.90;;
76332;SDS011;71254;53.010;6.508;2023-08-08T03:10:46;6.45;;;4.20;;
76332;SDS011;71254;53.010;6.508;2023-08-08T03:13:11;5.05;;;4.55;;
76332;SDS011;71254;53.010;6.508;2023-08-08T03:15:37;5.30;;;4.80;;
76332;SDS011;71254;53.010;6.508;2023-08-08T03:18:02;7.63;;;4.68;;
76332;SDS011;71254;53.010;6.508;2023-08-08T03:20:28;6.13;;;4.45;;
76332;SDS011;71254;53.010;6.508;2023-08-08T03:22:54;6.28;;;4.28;;
76332;SDS011;71254;53.010;6.508;2023-08-08T03:25:19;6.80;;;4.03;;
76332;SDS011;71254;53.010;6.508;2023-08-08T03:27:45;5.68;;;4.18;;
76332;SDS011;71254;53.010;6.508;2023-08-08T03:30:11;4.82;;;4.30;;
76332;SDS011;71254;53.010;6.508;2023-08-08T03:32:37;4.72;;;4.00;;
76332;SDS011;71254;53.010;6.508;2023-08-08T03:35:04;4.53;;;3.97;;
76332;SDS011;71254;53.010;6.508;2023-08-08T03:37:30;4.90;;;4.35;;
76332;SDS011;71254;53.010;6.508;2023-08-08T03:39:55;6.57;;;4.65;;
76332;SDS011;71254;53.010;6.508;2023-08-08T03:42:21;5.45;;;3.75;;
76332;SDS011;71254;53.010;6.508;2023-08-08T03:44:46;5.75;;;3.97;;
76332;SDS011;71254;53.010;6.508;2023-08-08T03:47:12;4.20;;;3.80;;
76332;SDS011;71254;53.010;6.508;2023-08-08T03:49:38;8.43;;;4.10;;
76332;SDS011;71254;53.010;6.508;2023-08-08T03:52:03;4.97;;;3.90;;
76332;SDS011;71254;53.010;6.508;2023-08-08T03:54:29;6.05;;;3.67;;
76332;SDS011;71254;53.010;6.508;2023-08-08T03:56:55;5.47;;;3.83;;
76332;SDS011;71254;53.010;6.508;2023-08-08T03:59:20;7.45;;;3.95;;
76332;SDS011;71254;53.010;6.508;2023-08-08T04:01:46;7.65;;;4.03;;
76332;SDS011;71254;53.010;6.508;2023-08-08T04:04:12;5.50;;;3.90;;
76332;SDS011;71254;53.010;6.508;2023-08-08T04:06:38;8.80;;;3.90;;
76332;SDS011;71254;53.010;6.508;2023-08-08T04:09:03;7.00;;;4.03;;
76332;SDS011;71254;53.010;6.508;2023-08-08T04:11:29;6.60;;;3.40;;
76332;SDS011;71254;53.010;6.508;2023-08-08T04:13:55;6.65;;;3.63;;
76332;SDS011;71254;53.010;6.508;2023-08-08T04:16:20;7.50;;;3.65;;
76332;SDS011;71254;53.010;6.508;2023-08-08T04:18:46;4.88;;;3.50;;
76332;SDS011;71254;53.010;6.508;2023-08-08T04:21:11;6.25;;;3.33;;
76332;SDS011;71254;53.010;6.508;2023-08-08T04:23:37;4.47;;;3.05;;
76332;SDS011;71254;53.010;6.508;2023-08-08T04:26:02;5.47;;;2.90;;
76332;SDS011;71254;53.010;6.508;2023-08-08T04:28:28;6.20;;;3.78;;
76332;SDS011;71254;53.010;6.508;2023-08-08T04:30:54;5.35;;;3.15;;
76332;SDS011;71254;53.010;6.508;2023-08-08T04:33:19;6.63;;;2.70;;
76332;SDS011;71254;53.010;6.508;2023-08-08T04:35:45;5.88;;;2.95;;
76332;SDS011;71254;53.010;6.508;2023-08-08T04:38:13;8.68;;;3.05;;
76332;SDS011;71254;53.010;6.508;2023-08-08T04:40:40;4.95;;;2.97;;
76332;SDS011;71254;53.010;6.508;2023-08-08T04:43:06;6.90;;;2.80;;
76332;SDS011;71254;53.010;6.508;2023-08-08T04:45:31;6.07;;;2.80;;
76332;SDS011;71254;53.010;6.508;2023-08-08T04:47:58;6.60;;;3.15;;
76332;SDS011;71254;53.010;6.508;2023-08-08T04:50:24;5.05;;;2.80;;
76332;SDS011;71254;53.010;6.508;2023-08-08T04:52:49;7.43;;;2.78;;
76332;SDS011;71254;53.010;6.508;2023-08-08T04:55:15;5.65;;;2.72;;
76332;SDS011;71254;53.010;6.508;2023-08-08T04:57:41;8.68;;;2.95;;
76332;SDS011;71254;53.010;6.508;2023-08-08T05:00:06;6.47;;;2.88;;
76332;SDS011;71254;53.010;6.508;2023-08-08T05:02:34;4.88;;;2.33;;
76332;SDS011;71254;53.010;6.508;2023-08-08T05:05:00;3.67;;;2.45;;
76332;SDS011;71254;53.010;6.508;2023-08-08T05:07:26;7.53;;;3.10;;
76332;SDS011;71254;53.010;6.508;2023-08-08T05:09:52;6.75;;;2.40;;
76332;SDS011;71254;53.010;6.508;2023-08-08T05:12:17;5.05;;;2.40;;
76332;SDS011;71254;53.010;6.508;2023-08-08T05:14:43;6.20;;;2.38;;
76332;SDS011;71254;53.010;6.508;2023-08-08T05:17:08;4.85;;;2.10;;
76332;SDS011;71254;53.010;6.508;2023-08-08T05:19:34;4.30;;;2.15;;
76332;SDS011;71254;53.010;6.508;2023-08-08T05:22:00;6.63;;;2.50;;
76332;SDS011;71254;53.010;6.508;2023-08-08T05:24:25;8.70;;;2.78;;
76332;SDS011;71254;53.010;6.508;2023-08-08T05:26:51;6.07;;;2.42;;
76332;SDS011;71254;53.010;6.508;2023-08-08T05:29:18;5.93;;;2.30;;
76332;SDS011;71254;53.010;6.508;2023-08-08T05:31:44;5.97;;;2.15;;
76332;SDS011;71254;53.010;6.508;2023-08-08T05:34:10;4.97;;;2.05;;
76332;SDS011;71254;53.010;6.508;2023-08-08T05:36:36;7.25;;;2.42;;
76332;SDS011;71254;53.010;6.508;2023-08-08T05:39:02;5.45;;;2.28;;
76332;SDS011;71254;53.010;6.508;2023-08-08T05:41:28;4.38;;;1.98;;
76332;SDS011;71254;53.010;6.508;2023-08-08T05:43:53;6.88;;;1.90;;
76332;SDS011;71254;53.010;6.508;2023-08-08T05:46:19;3.30;;;1.83;;
76332;SDS011;71254;53.010;6.508;2023-08-08T05:48:44;3.65;;;1.80;;
76332;SDS011;71254;53.010;6.508;2023-08-08T05:51:11;4.47;;;1.83;;
76332;SDS011;71254;53.010;6.508;2023-08-08T05:53:37;4.13;;;2.08;;
76332;SDS011;71254;53.010;6.508;2023-08-08T05:56:03;4.82;;;1.65;;
76332;SDS011;71254;53.010;6.508;2023-08-08T05:58:29;3.38;;;1.52;;
76332;SDS011;71254;53.010;6.508;2023-08-08T06:00:54;3.95;;;1.65;;
76332;SDS011;71254;53.010;6.508;2023-08-08T06:03:20;6.50;;;2.10;;
76332;SDS011;71254;53.010;6.508;2023-08-08T06:05:45;4.60;;;1.85;;
76332;SDS011;71254;53.010;6.508;2023-08-08T06:08:11;5.63;;;1.98;;
76332;SDS011;71254;53.010;6.508;2023-08-08T06:10:38;4.25;;;1.60;;
76332;SDS011;71254;53.010;6.508;2023-08-08T06:13:04;5.15;;;1.95;;
76332;SDS011;71254;53.010;6.508;2023-08-08T06:15:29;2.83;;;1.60;;
76332;SDS011;71254;53.010;6.508;2023-08-08T06:17:55;5.90;;;1.70;;
76332;SDS011;71254;53.010;6.508;2023-08-08T06:20:21;3.80;;;1.35;;
76332;SDS011;71254;53.010;6.508;2023-08-08T06:22:47;5.35;;;1.55;;
76332;SDS011;71254;53.010;6.508;2023-08-08T06:25:12;4.47;;;1.58;;
76332;SDS011;71254;53.010;6.508;2023-08-08T06:27:38;6.40;;;1.60;;
76332;SDS011;71254;53.010;6.508;2023-08-08T06:30:03;2.65;;;1.40;;
76332;SDS011;71254;53.010;6.508;2023-08-08T06:32:30;6.57;;;1.65;;
76332;SDS011;71254;53.010;6.508;2023-08-08T06:34:55;4.68;;;1.58;;
76332;SDS011;71254;53.010;6.508;2023-08-08T06:37:21;3.03;;;1.60;;
76332;SDS011;71254;53.010;6.508;2023-08-08T06:39:47;4.85;;;1.52;;
76332;SDS011;71254;53.010;6.508;2023-08-08T06:42:12;3.67;;;1.67;;
76332;SDS011;71254;53.010;6.508;2023-08-08T06:44:41;4.60;;;1.67;;
76332;SDS011;71254;53.010;6.508;2023-08-08T06:47:08;2.90;;;1.33;;
76332;SDS011;71254;53.010;6.508;2023-08-08T06:49:34;5.45;;;1.50;;
76332;SDS011;71254;53.010;6.508;2023-08-08T06:51:59;4.68;;;1.20;;
76332;SDS011;71254;53.010;6.508;2023-08-08T06:54:25;6.50;;;1.48;;
76332;SDS011;71254;53.010;6.508;2023-08-08T06:56:53;3.20;;;1.30;;
76332;SDS011;71254;53.010;6.508;2023-08-08T06:59:21;3.03;;;1.20;;
76332;SDS011;71254;53.010;6.508;2023-08-08T07:01:47;5.15;;;1.30;;
76332;SDS011;71254;53.010;6.508;2023-08-08T07:04:13;3.80;;;1.38;;
76332;SDS011;71254;53.010;6.508;2023-08-08T07:06:39;5.47;;;1.30;;
76332;SDS011;71254;53.010;6.508;2023-08-08T07:09:05;4.03;;;1.55;;
76332;SDS011;71254;53.010;6.508;2023-08-08T07:11:33;4.70;;;1.70;;
76332;SDS011;71254;53.010;6.508;2023-08-08T07:13:59;5.65;;;1.40;;
76332;SDS011;71254;53.010;6.508;2023-08-08T07:16:25;3.15;;;1.30;;
76332;SDS011;71254;53.010;6.508;2023-08-08T07:18:50;2.47;;;1.15;;
76332;SDS011;71254;53.010;6.508;2023-08-08T07:21:16;2.90;;;1.20;;
76332;SDS011;71254;53.010;6.508;2023-08-08T07:23:41;3.75;;;1.10;;
76332;SDS011;71254;53.010;6.508;2023-08-08T07:26:07;3.63;;;1.65;;
76332;SDS011;71254;53.010;6.508;2023-08-08T07:28:32;4.00;;;1.20;;
76332;SDS011;71254;53.010;6.508;2023-08-08T07:30:58;3.00;;;1.15;;
76332;SDS011;71254;53.010;6.508;2023-08-08T07:33:24;4.07;;;1.17;;
76332;SDS011;71254;53.010;6.508;2023-08-08T07:35:49;2.75;;;1.30;;
76332;SDS011;71254;53.010;6.508;2023-08-08T07:38:15;3.67;;;1.10;;
76332;SDS011;71254;53.010;6.508;2023-08-08T07:40:41;2.67;;;1.38;;
76332;SDS011;71254;53.010;6.508;2023-08-08T07:43:06;2.80;;;1.05;;
76332;SDS011;71254;53.010;6.508;2023-08-08T07:45:32;3.08;;;1.23;;
76332;SDS011;71254;53.010;6.508;2023-08-08T07:47:57;2.17;;;1.23;;
76332;SDS011;71254;53.010;6.508;2023-08-08T07:50:23;2.63;;;1.10;;
76332;SDS011;71254;53.010;6.508;2023-08-08T07:52:49;1.63;;;1.10;;
76332;SDS011;71254;53.010;6.508;2023-08-08T07:55:14;4.07;;;1.23;;
76332;SDS011;71254;53.010;6.508;2023-08-08T07:57:40;2.33;;;0.90;;
76332;SDS011;71254;53.010;6.508;2023-08-08T08:00:06;4.18;;;1.23;;
76332;SDS011;71254;53.010;6.508;2023-08-08T08:02:44;2.75;;;1.20;;
76332;SDS011;71254;53.010;6.508;2023-08-08T08:05:10;3.88;;;1.30;;
76332;SDS011;71254;53.010;6.508;2023-08-08T08:07:37;2.55;;;1.10;;
76332;SDS011;71254;53.010;6.508;2023-08-08T08:10:03;3.67;;;1.17;;
76332;SDS011;71254;53.010;6.508;2023-08-08T08:12:30;3.60;;;1.33;;
76332;SDS011;71254;53.010;6.508;2023-08-08T08:14:56;4.88;;;1.10;;
76332;SDS011;71254;53.010;6.508;2023-08-08T08:17:22;3.17;;;1.05;;
76332;SDS011;71254;53.010;6.508;2023-08-08T08:19:48;3.35;;;1.23;;
76332;SDS011;71254;53.010;6.508;2023-08-08T08:22:14;5.97;;;1.60;;
76332;SDS011;71254;53.010;6.508;2023-08-08T08:24:40;5.70;;;1.40;;
76332;SDS011;71254;53.010;6.508;2023-08-08T08:27:06;4.95;;;1.27;;
76332;SDS011;71254;53.010;6.508;2023-08-08T08:29:31;3.03;;;1.05;;
76332;SDS011;71254;53.010;6.508;2023-08-08T08:31:58;6.07;;;1.40;;
76332;SDS011;71254;53.010;6.508;2023-08-08T08:34:23;3.72;;;1.02;;
76332;SDS011;71254;53.010;6.508;2023-08-08T08:36:49;4.90;;;1.35;;
76332;SDS011;71254;53.010;6.508;2023-08-08T08:39:14;3.88;;;1.20;;
76332;SDS011;71254;53.010;6.508;2023-08-08T08:41:40;4.38;;;1.40;;
76332;SDS011;71254;53.010;6.508;2023-08-08T08:44:06;3.00;;;1.13;;
76332;SDS011;71254;53.010;6.508;2023-08-08T08:46:31;4.93;;;1.60;;
76332;SDS011;71254;53.010;6.508;2023-08-08T08:48:59;4.57;;;1.48;;
76332;SDS011;71254;53.010;6.508;2023-08-08T08:51:27;6.05;;;1.40;;
76332;SDS011;71254;53.010;6.508;2023-08-08T08:53:53;5.43;;;1.52;;
76332;SDS011;71254;53.010;6.508;2023-08-08T08:56:19;3.17;;;1.55;;
76332;SDS011;71254;53.010;6.508;2023-08-08T08:58:45;3.65;;;1.45;;
76332;SDS011;71254;53.010;6.508;2023-08-08T09:01:11;5.65;;;1.80;;
76332;SDS011;71254;53.010;6.508;2023-08-08T09:03:38;5.68;;;2.10;;
76332;SDS011;71254;53.010;6.508;2023-08-08T09:06:04;4.88;;;1.52;;
76332;SDS011;71254;53.010;6.508;2023-08-08T09:08:30;4.60;;;1.52;;
76332;SDS011;71254;53.010;6.508;2023-08-08T09:10:56;3.42;;;1.55;;
76332;SDS011;71254;53.010;6.508;2023-08-08T09:13:22;4.88;;;1.77;;
76332;SDS011;71254;53.010;6.508;2023-08-08T09:15:51;3.47;;;1.60;;
76332;SDS011;71254;53.010;6.508;2023-08-08T09:18:18;6.68;;;1.77;;
76332;SDS011;71254;53.010;6.508;2023-08-08T09:20:47;4.45;;;1.95;;
76332;SDS011;71254;53.010;6.508;2023-08-08T09:23:14;4.68;;;1.80;;
76332;SDS011;71254;53.010;6.508;2023-08-08T09:25:40;6.05;;;1.90;;
76332;SDS011;71254;53.010;6.508;2023-08-08T09:28:05;4.90;;;1.83;;
76332;SDS011;71254;53.010;6.508;2023-08-08T09:30:32;2.85;;;1.45;;
76332;SDS011;71254;53.010;6.508;2023-08-08T09:32:58;2.58;;;1.23;;
76332;SDS011;71254;53.010;6.508;2023-08-08T09:35:24;3.00;;;1.50;;
76332;SDS011;71254;53.010;6.508;2023-08-08T09:37:52;3.58;;;1.40;;
76332;SDS011;71254;53.010;6.508;2023-08-08T09:40:19;2.78;;;1.38;;
76332;SDS011;71254;53.010;6.508;2023-08-08T09:42:46;5.03;;;1.40;;
76332;SDS011;71254;53.010;6.508;2023-08-08T09:45:13;3.60;;;1.55;;
76332;SDS011;71254;53.010;6.508;2023-08-08T09:47:39;3.83;;;1.52;;
76332;SDS011;71254;53.010;6.508;2023-08-08T09:50:05;4.72;;;1.45;;
76332;SDS011;71254;53.010;6.508;2023-08-08T09:52:33;4.03;;;1.63;;
76332;SDS011;71254;53.010;6.508;2023-08-08T09:54:59;2.72;;;1.50;;
76332;SDS011;71254;53.010;6.508;2023-08-08T09:57:25;4.38;;;1.52;;
76332;SDS011;71254;53.010;6.508;2023-08-08T09:59:52;3.05;;;1.38;;
76332;SDS011;71254;53.010;6.508;2023-08-08T10:02:18;2.72;;;1.20;;
76332;SDS011;71254;53.010;6.508;2023-08-08T10:04:44;3.10;;;1.98;;
76332;SDS011;71254;53.010;6.508;2023-08-08T10:07:13;4.07;;;1.45;;
76332;SDS011;71254;53.010;6.508;2023-08-08T10:09:40;3.67;;;1.40;;
76332;SDS011;71254;53.010;6.508;2023-08-08T10:12:06;5.28;;;1.50;;
76332;SDS011;71254;53.010;6.508;2023-08-08T10:14:32;4.88;;;1.70;;
76332;SDS011;71254;53.010;6.508;2023-08-08T10:17:04;3.67;;;1.75;;
76332;SDS011;71254;53.010;6.508;2023-08-08T10:22:04;4.95;;;1.52;;
76332;SDS011;71254;53.010;6.508;2023-08-08T10:24:36;8.35;;;2.00;;
76332;SDS011;71254;53.010;6.508;2023-08-08T10:27:03;5.95;;;1.60;;
76332;SDS011;71254;53.010;6.508;2023-08-08T10:29:31;2.65;;;1.58;;
76332;SDS011;71254;53.010;6.508;2023-08-08T10:32:04;4.22;;;1.63;;
76332;SDS011;71254;53.010;6.508;2023-08-08T10:37:04;3.47;;;1.40;;
76332;SDS011;71254;53.010;6.508;2023-08-08T10:39:31;5.35;;;1.35;;
76332;SDS011;71254;53.010;6.508;2023-08-08T10:41:59;5.38;;;1.60;;
76332;SDS011;71254;53.010;6.508;2023-08-08T10:44:27;4.63;;;1.60;;
76332;SDS011;71254;53.010;6.508;2023-08-08T10:46:53;4.53;;;1.42;;
76332;SDS011;71254;53.010;6.508;2023-08-08T10:49:20;4.05;;;1.40;;
76332;SDS011;71254;53.010;6.508;2023-08-08T10:51:46;3.00;;;1.52;;
76332;SDS011;71254;53.010;6.508;2023-08-08T10:54:18;4.15;;;1.77;;
76332;SDS011;71254;53.010;6.508;2023-08-08T10:56:49;2.53;;;1.38;;
76332;SDS011;71254;53.010;6.508;2023-08-08T10:59:21;4.85;;;1.40;;
76332;SDS011;71254;53.010;6.508;2023-08-08T11:01:49;3.83;;;1.65;;
76332;SDS011;71254;53.010;6.508;2023-08-08T11:04:20;5.85;;;1.50;;
76332;SDS011;71254;53.010;6.508;2023-08-08T11:06:48;2.42;;;1.30;;
76332;SDS011;71254;53.010;6.508;2023-08-08T11:09:15;3.20;;;1.40;;
76332;SDS011;71254;53.010;6.508;2023-08-08T11:11:42;7.00;;;1.60;;
76332;SDS011;71254;53.010;6.508;2023-08-08T11:14:19;5.82;;;1.30;;
76332;SDS011;71254;53.010;6.508;2023-08-08T11:16:46;3.78;;;1.75;;
76332;SDS011;71254;53.010;6.508;2023-08-08T11:19:13;6.07;;;1.70;;
76332;SDS011;71254;53.010;6.508;2023-08-08T11:21:40;3.17;;;1.40;;
76332;SDS011;71254;53.010;6.508;2023-08-08T11:24:07;5.22;;;1.50;;
76332;SDS011;71254;53.010;6.508;2023-08-08T11:26:34;4.30;;;1.35;;
76332;SDS011;71254;53.010;6.508;2023-08-08T11:29:01;3.95;;;1.38;;
76332;SDS011;71254;53.010;6.508;2023-08-08T11:31:28;3.65;;;1.27;;
76332;SDS011;71254;53.010;6.508;2023-08-08T11:33:54;3.15;;;1.65;;
76332;SDS011;71254;53.010;6.508;2023-08-08T11:36:21;2.25;;;1.00;;
76332;SDS011;71254;53.010;6.508;2023-08-08T11:38:49;2.17;;;1.27;;
76332;SDS011;71254;53.010;6.508;2023-08-08T11:41:16;3.88;;;1.02;;
76332;SDS011;71254;53.010;6.508;2023-08-08T11:43:46;3.85;;;1.20;;
76332;SDS011;71254;53.010;6.508;2023-08-08T11:46:12;3.35;;;1.20;;
76332;SDS011;71254;53.010;6.508;2023-08-08T11:48:38;2.35;;;1.10;;
76332;SDS011;71254;53.010;6.508;2023-08-08T11:51:05;3.63;;;1.50;;
76332;SDS011;71254;53.010;6.508;2023-08-08T11:53:31;3.15;;;1.50;;
76332;SDS011;71254;53.010;6.508;2023-08-08T11:55:59;4.63;;;1.40;;
76332;SDS011;71254;53.010;6.508;2023-08-08T11:58:25;4.47;;;1.45;;
76332;SDS011;71254;53.010;6.508;2023-08-08T12:00:51;3.28;;;1.20;;
76332;SDS011;71254;53.010;6.508;2023-08-08T12:03:19;5.60;;;1.60;;
76332;SDS011;71254;53.010;6.508;2023-08-08T12:05:46;2.42;;;1.08;;
76332;SDS011;71254;53.010;6.508;2023-08-08T12:08:12;2.17;;;1.05;;
76332;SDS011;71254;53.010;6.508;2023-08-08T12:10:39;2.88;;;1.00;;
76332;SDS011;71254;53.010;6.508;2023-08-08T12:13:05;4.18;;;1.30;;
76332;SDS011;71254;53.010;6.508;2023-08-08T12:15:35;3.08;;;1.02;;
76332;SDS011;71254;53.010;6.508;2023-08-08T12:18:01;3.38;;;1.30;;
76332;SDS011;71254;53.010;6.508;2023-08-08T12:20:28;5.88;;;1.25;;
76332;SDS011;71254;53.010;6.508;2023-08-08T12:22:56;4.05;;;1.63;;
76332;SDS011;71254;53.010;6.508;2023-08-08T12:25:22;3.78;;;1.20;;
76332;SDS011;71254;53.010;6.508;2023-08-08T12:27:47;2.40;;;1.15;;
76332;SDS011;71254;53.010;6.508;2023-08-08T12:30:13;2.75;;;1.10;;
76332;SDS011;71254;53.010;6.508;2023-08-08T12:32:39;4.45;;;1.20;;
76332;SDS011;71254;53.010;6.508;2023-08-08T12:35:05;2.65;;;1.20;;
76332;SDS011;71254;53.010;6.508;2023-08-08T12:37:31;3.50;;;1.38;;
76332;SDS011;71254;53.010;6.508;2023-08-08T12:39:57;2.97;;;1.00;;
76332;SDS011;71254;53.010;6.508;2023-08-08T12:42:23;3.00;;;1.05;;
76332;SDS011;71254;53.010;6.508;2023-08-08T12:44:48;5.57;;;1.15;;
76332;SDS011;71254;53.010;6.508;2023-08-08T12:47:16;2.35;;;0.93;;
76332;SDS011;71254;53.010;6.508;2023-08-08T12:49:43;3.40;;;1.25;;
76332;SDS011;71254;53.010;6.508;2023-08-08T12:52:09;2.13;;;1.10;;
76332;SDS011;71254;53.010;6.508;2023-08-08T12:54:34;3.28;;;1.20;;
76332;SDS011;71254;53.010;6.508;2023-08-08T12:57:01;2.97;;;1.30;;
76332;SDS011;71254;53.010;6.508;2023-08-08T12:59:27;1.80;;;0.90;;
76332;SDS011;71254;53.010;6.508;2023-08-08T13:01:53;4.15;;;1.15;;
76332;SDS011;71254;53.010;6.508;2023-08-08T13:04:18;4.32;;;1.13;;
76332;SDS011;71254;53.010;6.508;2023-08-08T13:06:44;2.42;;;1.10;;
76332;SDS011;71254;53.010;6.508;2023-08-08T13:09:10;6.28;;;1.20;;
76332;SDS011;71254;53.010;6.508;2023-08-08T13:11:37;4.93;;;1.38;;
76332;SDS011;71254;53.010;6.508;2023-08-08T13:14:02;6.10;;;1.38;;
76332;SDS011;71254;53.010;6.508;2023-08-08T13:16:28;3.92;;;1.05;;
76332;SDS011;71254;53.010;6.508;2023-08-08T13:18:53;2.92;;;1.23;;
76332;SDS011;71254;53.010;6.508;2023-08-08T13:21:19;5.35;;;1.50;;
76332;SDS011;71254;53.010;6.508;2023-08-08T13:23:45;2.35;;;1.10;;
76332;SDS011;71254;53.010;6.508;2023-08-08T13:26:11;3.55;;;1.33;;
76332;SDS011;71254;53.010;6.508;2023-08-08T13:28:36;3.08;;;1.63;;
76332;SDS011;71254;53.010;6.508;2023-08-08T13:31:04;2.83;;;1.38;;
76332;SDS011;71254;53.010;6.508;2023-08-08T13:33:31;5.60;;;1.83;;
76332;SDS011;71254;53.010;6.508;2023-08-08T13:35:57;4.82;;;1.20;;
76332;SDS011;71254;53.010;6.508;2023-08-08T13:38:22;4.50;;;2.22;;
76332;SDS011;71254;53.010;6.508;2023-08-08T13:40:49;4.43;;;2.05;;
76332;SDS011;71254;53.010;6.508;2023-08-08T13:43:14;3.38;;;1.80;;
76332;SDS011;71254;53.010;6.508;2023-08-08T13:45:40;5.03;;;2.25;;
76332;SDS011;71254;53.010;6.508;2023-08-08T13:48:06;10.23;;;3.47;;
76332;SDS011;71254;53.010;6.508;2023-08-08T13:50:31;5.07;;;1.63;;
76332;SDS011;71254;53.010;6.508;2023-08-08T13:52:57;4.03;;;1.40;;
76332;SDS011;71254;53.010;6.508;2023-08-08T13:55:23;4.90;;;1.75;;
76332;SDS011;71254;53.010;6.508;2023-08-08T13:57:50;3.17;;;1.70;;
76332;SDS011;71254;53.010;6.508;2023-08-08T14:00:16;3.22;;;1.88;;
76332;SDS011;71254;53.010;6.508;2023-08-08T14:02:42;2.22;;;1.15;;
76332;SDS011;71254;53.010;6.508;2023-08-08T14:05:08;3.33;;;1.10;;
76332;SDS011;71254;53.010;6.508;2023-08-08T14:07:34;2.45;;;1.55;;
76332;SDS011;71254;53.010;6.508;2023-08-08T14:10:00;3.25;;;1.05;;
76332;SDS011;71254;53.010;6.508;2023-08-08T14:12:26;5.25;;;1.52;;
76332;SDS011;71254;53.010;6.508;2023-08-08T14:14:52;3.47;;;1.30;;
76332;SDS011;71254;53.010;6.508;2023-08-08T14:17:18;5.22;;;1.42;;
76332;SDS011;71254;53.010;6.508;2023-08-08T14:19:43;3.35;;;1.50;;
76332;SDS011;71254;53.010;6.508;2023-08-08T14:22:09;4.15;;;1.20;;
76332;SDS011;71254;53.010;6.508;2023-08-08T14:24:35;4.18;;;1.20;;
76332;SDS011;71254;53.010;6.508;2023-08-08T14:27:01;4.80;;;1.35;;
76332;SDS011;71254;53.010;6.508;2023-08-08T14:29:27;3.25;;;1.00;;
76332;SDS011;71254;53.010;6.508;2023-08-08T14:31:53;4.10;;;1.40;;
76332;SDS011;71254;53.010;6.508;2023-08-08T14:34:18;4.18;;;1.35;;
76332;SDS011;71254;53.010;6.508;2023-08-08T14:36:44;2.88;;;1.50;;
76332;SDS011;71254;53.010;6.508;2023-08-08T14:39:10;5.45;;;1.33;;
76332;SDS011;71254;53.010;6.508;2023-08-08T14:41:36;2.17;;;1.35;;
76332;SDS011;71254;53.010;6.508;2023-08-08T14:44:02;5.88;;;1.48;;
76332;SDS011;71254;53.010;6.508;2023-08-08T14:46:27;3.47;;;1.50;;